This is the latest recevied weather packets stored in our database for station/object IK1AMC-3. If no packets are shown the sender has not sent any weather packets the latest 10 day(s).
| Time | Temp. | Humidity | Pressure | Rain* | Wind** | Luminosity | Snow |
|---|---|---|---|---|---|---|---|
| 1777924778 | 18.33° C | 71% | 1016.5 hPa | - | - | - | - |
| 1777923577 | 18.89° C | 70% | 1016.5 hPa | - | - | - | - |
| 1777922376 | 18.89° C | 70% | 1016.3 hPa | - | - | - | - |
| 1777921174 | 18.89° C | 69% | 1016.2 hPa | - | - | - | - |
| 1777919973 | 18.89° C | 68% | 1016.2 hPa | - | - | - | - |
| 1777918772 | 18.89° C | 68% | 1016.5 hPa | - | - | - | - |
| 1777917570 | 18.89° C | 67% | 1016.2 hPa | - | - | - | - |
| 1777916369 | 18.89° C | 67% | 1016 hPa | - | - | - | - |
| 1777915168 | 19.44° C | 66% | 1015.9 hPa | - | - | - | - |
| 1777913967 | 19.44° C | 66% | 1016.3 hPa | - | - | - | - |
| 1777912765 | 18.89° C | 67% | 1016.5 hPa | - | - | - | - |
| 1777911564 | 20° C | 65% | 1016.5 hPa | - | - | - | - |
| 1777910363 | 20° C | 65% | 1016.4 hPa | - | - | - | - |
| 1777909161 | 20° C | 64% | 1016.7 hPa | - | - | - | - |
| 1777907960 | 20° C | 64% | 1016.7 hPa | - | - | - | - |
| 1777906759 | 20.56° C | 62% | 1016.9 hPa | - | - | - | - |
| 1777905558 | 19.44° C | 66% | 1017.1 hPa | - | - | - | - |
| 1777904356 | 20° C | 64% | 1017 hPa | - | - | - | - |
| 1777903155 | 20.56° C | 64% | 1017.4 hPa | - | - | - | - |
| 1777901954 | 20.56° C | 62% | 1017.6 hPa | - | - | - | - |
| 1777900753 | 21.67° C | 59% | 1017.9 hPa | - | - | - | - |
| 1777899551 | 20.56° C | 63% | 1018 hPa | - | - | - | - |
| 1777898350 | 20° C | 65% | 1018.1 hPa | - | - | - | - |
| 1777897149 | 19.44° C | 64% | 1018.3 hPa | - | - | - | - |
| 1777895947 | 20.56° C | 62% | 1018.3 hPa | - | - | - | - |
* Rain since midnight (hover to see other rain measurements)
** Current wind speed in m/s (hover to see current wind gust speed)